sensor_id;sensor_type;location;lat;lon;timestamp;pressure;altitude;pressure_sealevel;temperature;humidity
52957;BME280;38819;42.692;23.342;2024-02-04T00:02:01;95691.88;;;8.88;56.93
52957;BME280;38819;42.692;23.342;2024-02-04T00:04:28;95688.66;;;8.91;56.84
52957;BME280;38819;42.692;23.342;2024-02-04T00:06:54;95688.13;;;8.89;56.90
52957;BME280;38819;42.692;23.342;2024-02-04T00:09:20;95697.00;;;8.89;56.98
52957;BME280;38819;42.692;23.342;2024-02-04T00:11:45;95696.47;;;8.87;56.98
52957;BME280;38819;42.692;23.342;2024-02-04T00:14:11;95698.06;;;8.88;57.29
52957;BME280;38819;42.692;23.342;2024-02-04T00:16:37;95701.03;;;8.82;57.67
52957;BME280;38819;42.692;23.342;2024-02-04T00:19:03;95691.34;;;8.81;57.73
52957;BME280;38819;42.692;23.342;2024-02-04T00:21:28;95705.63;;;8.81;57.97
52957;BME280;38819;42.692;23.342;2024-02-04T00:23:53;95694.31;;;8.84;57.88
52957;BME280;38819;42.692;23.342;2024-02-04T00:26:19;95695.09;;;8.85;58.00
52957;BME280;38819;42.692;23.342;2024-02-04T00:28:44;95699.97;;;8.88;57.82
52957;BME280;38819;42.692;23.342;2024-02-04T00:31:10;95694.03;;;8.91;57.71
52957;BME280;38819;42.692;23.342;2024-02-04T00:33:35;95705.09;;;8.89;57.75
52957;BME280;38819;42.692;23.342;2024-02-04T00:36:00;95705.34;;;8.83;57.93
52957;BME280;38819;42.692;23.342;2024-02-04T00:38:26;95692.41;;;8.90;57.93
52957;BME280;38819;42.692;23.342;2024-02-04T00:40:51;95695.09;;;8.85;58.19
52957;BME280;38819;42.692;23.342;2024-02-04T00:43:18;95690.00;;;8.88;57.94
52957;BME280;38819;42.692;23.342;2024-02-04T00:45:43;95689.47;;;8.86;58.07
52957;BME280;38819;42.692;23.342;2024-02-04T00:48:08;95684.06;;;8.92;58.18
52957;BME280;38819;42.692;23.342;2024-02-04T00:50:34;95681.63;;;8.90;58.09
52957;BME280;38819;42.692;23.342;2024-02-04T00:52:59;95684.91;;;8.92;58.41
52957;BME280;38819;42.692;23.342;2024-02-04T00:55:24;95690.28;;;8.97;58.20
52957;BME280;38819;42.692;23.342;2024-02-04T00:57:50;95690.28;;;8.92;58.47
52957;BME280;38819;42.692;23.342;2024-02-04T01:00:15;95686.75;;;8.97;58.35
52957;BME280;38819;42.692;23.342;2024-02-04T01:02:41;95685.94;;;9.01;58.45
52957;BME280;38819;42.692;23.342;2024-02-04T01:05:07;95688.91;;;9.00;58.74
52957;BME280;38819;42.692;23.342;2024-02-04T01:07:32;95689.19;;;8.98;58.72
52957;BME280;38819;42.692;23.342;2024-02-04T01:09:58;95688.91;;;8.95;58.80
52957;BME280;38819;42.692;23.342;2024-02-04T01:12:23;95687.31;;;8.99;58.85
52957;BME280;38819;42.692;23.342;2024-02-04T01:14:49;95687.31;;;9.04;58.66
52957;BME280;38819;42.692;23.342;2024-02-04T01:17:14;95697.25;;;9.08;58.75
52957;BME280;38819;42.692;23.342;2024-02-04T01:19:39;95692.44;;;9.05;58.55
52957;BME280;38819;42.692;23.342;2024-02-04T01:22:05;95696.72;;;9.12;58.67
52957;BME280;38819;42.692;23.342;2024-02-04T01:24:31;95693.22;;;9.11;58.79
52957;BME280;38819;42.692;23.342;2024-02-04T01:26:56;95690.78;;;9.15;58.40
52957;BME280;38819;42.692;23.342;2024-02-04T01:29:22;95690.78;;;9.09;58.90
52957;BME280;38819;42.692;23.342;2024-02-04T01:31:47;95687.81;;;9.16;58.76
52957;BME280;38819;42.692;23.342;2024-02-04T01:34:12;95685.13;;;9.11;59.18
52957;BME280;38819;42.692;23.342;2024-02-04T01:36:38;95685.13;;;9.11;59.35
52957;BME280;38819;42.692;23.342;2024-02-04T01:39:03;95676.50;;;9.14;59.33
52957;BME280;38819;42.692;23.342;2024-02-04T01:41:30;95680.78;;;9.20;59.32
52957;BME280;38819;42.692;23.342;2024-02-04T01:43:55;95669.75;;;9.22;59.23
52957;BME280;38819;42.692;23.342;2024-02-04T01:46:21;95665.19;;;9.17;59.29
52957;BME280;38819;42.692;23.342;2024-02-04T01:48:47;95654.69;;;9.21;59.33
52957;BME280;38819;42.692;23.342;2024-02-04T01:51:14;95661.13;;;9.20;59.48
52957;BME280;38819;42.692;23.342;2024-02-04T01:53:42;95654.94;;;9.19;59.44
52957;BME280;38819;42.692;23.342;2024-02-04T01:56:10;95660.31;;;9.24;59.29
52957;BME280;38819;42.692;23.342;2024-02-04T01:58:36;95655.22;;;9.18;59.46
52957;BME280;38819;42.692;23.342;2024-02-04T02:01:02;95660.59;;;9.18;59.75
52957;BME280;38819;42.692;23.342;2024-02-04T02:03:28;95645.50;;;9.17;59.97
52957;BME280;38819;42.692;23.342;2024-02-04T02:05:56;95658.44;;;9.15;60.01
52957;BME280;38819;42.692;23.342;2024-02-04T02:08:22;95647.41;;;9.16;59.91
52957;BME280;38819;42.692;23.342;2024-02-04T02:10:48;95663.56;;;9.16;60.34
52957;BME280;38819;42.692;23.342;2024-02-04T02:13:25;95652.28;;;9.09;60.48
52957;BME280;38819;42.692;23.342;2024-02-04T02:15:56;95648.50;;;9.05;60.70
52957;BME280;38819;42.692;23.342;2024-02-04T02:19:02;95659.00;;;9.12;60.86
52957;BME280;38819;42.692;23.342;2024-02-04T02:24:35;95646.88;;;9.09;60.71
52957;BME280;38819;42.692;23.342;2024-02-04T02:27:03;95647.41;;;9.06;60.73
52957;BME280;38819;42.692;23.342;2024-02-04T02:29:30;95653.59;;;9.17;60.55
52957;BME280;38819;42.692;23.342;2024-02-04T02:31:57;95640.94;;;9.17;60.45
52957;BME280;38819;42.692;23.342;2024-02-04T02:34:23;95642.78;;;9.22;60.43
52957;BME280;38819;42.692;23.342;2024-02-04T02:37:08;95634.44;;;9.18;60.35
52957;BME280;38819;42.692;23.342;2024-02-04T02:39:47;95643.09;;;9.25;60.34
52957;BME280;38819;42.692;23.342;2024-02-04T02:42:14;95643.88;;;9.26;60.19
52957;BME280;38819;42.692;23.342;2024-02-04T02:44:41;95628.22;;;9.28;60.10
52957;BME280;38819;42.692;23.342;2024-02-04T02:47:08;95640.38;;;9.31;60.08
52957;BME280;38819;42.692;23.342;2024-02-04T02:49:34;95647.09;;;9.33;59.96
52957;BME280;38819;42.692;23.342;2024-02-04T02:51:59;95642.78;;;9.32;59.98
52957;BME280;38819;42.692;23.342;2024-02-04T02:54:25;95644.13;;;9.35;59.81
52957;BME280;38819;42.692;23.342;2024-02-04T02:56:50;95630.13;;;9.27;59.67
52957;BME280;38819;42.692;23.342;2024-02-04T02:59:15;95632.81;;;9.33;59.97
52957;BME280;38819;42.692;23.342;2024-02-04T03:01:41;95640.91;;;9.27;59.92
52957;BME280;38819;42.692;23.342;2024-02-04T03:04:07;95636.03;;;9.30;59.83
52957;BME280;38819;42.692;23.342;2024-02-04T03:06:32;95632.25;;;9.36;59.74
52957;BME280;38819;42.692;23.342;2024-02-04T03:08:58;95638.72;;;9.40;59.67
52957;BME280;38819;42.692;23.342;2024-02-04T03:11:23;95642.19;;;9.40;59.62
52957;BME280;38819;42.692;23.342;2024-02-04T03:13:48;95635.75;;;9.41;59.61
52957;BME280;38819;42.692;23.342;2024-02-04T03:16:14;95636.81;;;9.45;59.41
52957;BME280;38819;42.692;23.342;2024-02-04T03:18:40;95631.72;;;9.44;59.57
52957;BME280;38819;42.692;23.342;2024-02-04T03:21:13;95621.72;;;9.44;59.55
52957;BME280;38819;42.692;23.342;2024-02-04T03:23:40;95631.69;;;9.49;59.60
52957;BME280;38819;42.692;23.342;2024-02-04T03:26:05;95619.84;;;9.40;60.00
52957;BME280;38819;42.692;23.342;2024-02-04T03:28:31;95620.91;;;9.44;59.73
52957;BME280;38819;42.692;23.342;2024-02-04T03:30:56;95618.44;;;9.53;59.72
52957;BME280;38819;42.692;23.342;2024-02-04T03:33:21;95625.22;;;9.45;59.85
52957;BME280;38819;42.692;23.342;2024-02-04T03:35:47;95604.75;;;9.44;59.91
52957;BME280;38819;42.692;23.342;2024-02-04T03:38:12;95603.91;;;9.49;60.00
52957;BME280;38819;42.692;23.342;2024-02-04T03:40:38;95604.16;;;9.57;59.95
52957;BME280;38819;42.692;23.342;2024-02-04T03:43:03;95595.22;;;9.57;59.75
52957;BME280;38819;42.692;23.342;2024-02-04T03:45:28;95581.19;;;9.60;59.53
52957;BME280;38819;42.692;23.342;2024-02-04T03:47:54;95579.03;;;9.62;59.65
52957;BME280;38819;42.692;23.342;2024-02-04T03:50:19;95576.88;;;9.64;59.46
52957;BME280;38819;42.692;23.342;2024-02-04T03:52:44;95580.66;;;9.63;59.07
52957;BME280;38819;42.692;23.342;2024-02-04T03:55:10;95576.09;;;9.58;59.40
52957;BME280;38819;42.692;23.342;2024-02-04T03:57:35;95585.28;;;9.57;59.51
52957;BME280;38819;42.692;23.342;2024-02-04T04:00:00;95591.16;;;9.64;59.15
52957;BME280;38819;42.692;23.342;2024-02-04T04:02:26;95589.31;;;9.55;59.34
52957;BME280;38819;42.692;23.342;2024-02-04T04:04:51;95586.91;;;9.48;59.69
52957;BME280;38819;42.692;23.342;2024-02-04T04:07:16;95609.31;;;9.38;60.07
52957;BME280;38819;42.692;23.342;2024-02-04T04:09:42;95596.94;;;9.37;60.27
52957;BME280;38819;42.692;23.342;2024-02-04T04:12:07;95607.16;;;9.45;60.19
52957;BME280;38819;42.692;23.342;2024-02-04T04:14:33;95593.41;;;9.42;60.37
52957;BME280;38819;42.692;23.342;2024-02-04T04:16:58;95598.50;;;9.49;60.32
52957;BME280;38819;42.692;23.342;2024-02-04T04:19:23;95596.91;;;9.48;60.71
52957;BME280;38819;42.692;23.342;2024-02-04T04:21:49;95581.53;;;9.48;60.64
52957;BME280;38819;42.692;23.342;2024-02-04T04:24:15;95572.38;;;9.44;60.70
52957;BME280;38819;42.692;23.342;2024-02-04T04:26:44;95585.84;;;9.49;60.69
52957;BME280;38819;42.692;23.342;2024-02-04T04:29:10;95589.06;;;9.51;60.57
52957;BME280;38819;42.692;23.342;2024-02-04T04:31:35;95598.78;;;9.52;60.58
52957;BME280;38819;42.692;23.342;2024-02-04T04:34:00;95618.19;;;9.49;60.63
52957;BME280;38819;42.692;23.342;2024-02-04T04:36:26;95621.44;;;9.51;60.48
52957;BME280;38819;42.692;23.342;2024-02-04T04:38:51;95592.06;;;9.44;60.64
52957;BME280;38819;42.692;23.342;2024-02-04T04:41:17;95604.47;;;9.45;60.48
52957;BME280;38819;42.692;23.342;2024-02-04T04:43:42;95602.81;;;9.50;60.71
52957;BME280;38819;42.692;23.342;2024-02-04T04:46:07;95606.31;;;9.50;60.67
52957;BME280;38819;42.692;23.342;2024-02-04T04:48:33;95609.81;;;9.56;60.61
52957;BME280;38819;42.692;23.342;2024-02-04T04:50:58;95613.84;;;9.58;60.61
52957;BME280;38819;42.692;23.342;2024-02-04T04:53:24;95608.41;;;9.63;60.84
52957;BME280;38819;42.692;23.342;2024-02-04T04:55:49;95607.31;;;9.70;60.63
52957;BME280;38819;42.692;23.342;2024-02-04T04:58:15;95601.19;;;9.59;60.96
52957;BME280;38819;42.692;23.342;2024-02-04T05:00:40;95608.69;;;9.62;60.81
52957;BME280;38819;42.692;23.342;2024-02-04T05:03:05;95612.75;;;9.64;60.81
52957;BME280;38819;42.692;23.342;2024-02-04T05:05:31;95602.47;;;9.67;60.66
52957;BME280;38819;42.692;23.342;2024-02-04T05:07:56;95602.75;;;9.65;60.60
52957;BME280;38819;42.692;23.342;2024-02-04T05:10:21;95590.38;;;9.64;60.71
52957;BME280;38819;42.692;23.342;2024-02-04T05:12:47;95600.56;;;9.67;60.57
52957;BME280;38819;42.692;23.342;2024-02-04T05:15:12;95591.69;;;9.67;60.48
52957;BME280;38819;42.692;23.342;2024-02-04T05:17:37;95594.09;;;9.68;60.55
52957;BME280;38819;42.692;23.342;2024-02-04T05:20:03;95602.44;;;9.72;60.34
52957;BME280;38819;42.692;23.342;2024-02-04T05:22:29;95607.06;;;9.66;60.20
52957;BME280;38819;42.692;23.342;2024-02-04T05:24:55;95610.03;;;9.70;60.13
52957;BME280;38819;42.692;23.342;2024-02-04T05:27:20;95600.06;;;9.65;60.45
52957;BME280;38819;42.692;23.342;2024-02-04T05:29:45;95595.50;;;9.66;60.26
52957;BME280;38819;42.692;23.342;2024-02-04T05:32:11;95610.81;;;9.70;60.35
52957;BME280;38819;42.692;23.342;2024-02-04T05:34:37;95617.84;;;9.71;60.35
52957;BME280;38819;42.692;23.342;2024-02-04T05:37:03;95606.78;;;9.68;60.22
52957;BME280;38819;42.692;23.342;2024-02-04T05:39:28;95619.75;;;9.66;60.36
52957;BME280;38819;42.692;23.342;2024-02-04T05:41:53;95607.59;;;9.68;60.28
52957;BME280;38819;42.692;23.342;2024-02-04T05:44:19;95615.69;;;9.68;60.03
52957;BME280;38819;42.692;23.342;2024-02-04T05:46:44;95604.63;;;9.70;59.76
52957;BME280;38819;42.692;23.342;2024-02-04T05:49:11;95628.34;;;9.73;59.71
52957;BME280;38819;42.692;23.342;2024-02-04T05:51:40;95617.28;;;9.74;59.45
52957;BME280;38819;42.692;23.342;2024-02-04T05:54:05;95615.38;;;9.75;59.39
52957;BME280;38819;42.692;23.342;2024-02-04T05:56:31;95620.28;;;9.68;59.13
52957;BME280;38819;42.692;23.342;2024-02-04T05:58:56;95629.13;;;9.78;58.97
52957;BME280;38819;42.692;23.342;2024-02-04T06:01:21;95627.81;;;9.71;58.71
52957;BME280;38819;42.692;23.342;2024-02-04T06:03:47;95631.31;;;9.71;59.15
52957;BME280;38819;42.692;23.342;2024-02-04T06:06:16;95631.84;;;9.73;59.14
52957;BME280;38819;42.692;23.342;2024-02-04T06:08:43;95640.47;;;9.75;58.63
52957;BME280;38819;42.692;23.342;2024-02-04T06:11:12;95655.63;;;9.61;58.80
52957;BME280;38819;42.692;23.342;2024-02-04T06:13:42;95648.06;;;9.68;58.65
52957;BME280;38819;42.692;23.342;2024-02-04T06:16:08;95661.25;;;9.70;58.60
52957;BME280;38819;42.692;23.342;2024-02-04T06:18:35;95642.38;;;9.70;58.47
52957;BME280;38819;42.692;23.342;2024-02-04T06:21:03;95650.75;;;9.68;58.51
52957;BME280;38819;42.692;23.342;2024-02-04T06:23:28;95644.03;;;9.66;58.40
52957;BME280;38819;42.692;23.342;2024-02-04T06:25:53;95654.81;;;9.71;58.40
52957;BME280;38819;42.692;23.342;2024-02-04T06:28:19;95656.69;;;9.65;58.58
52957;BME280;38819;42.692;23.342;2024-02-04T06:30:44;95657.75;;;9.74;58.30
52957;BME280;38819;42.692;23.342;2024-02-04T06:33:09;95656.94;;;9.69;58.50
52957;BME280;38819;42.692;23.342;2024-02-04T06:35:35;95673.97;;;9.69;58.13
52957;BME280;38819;42.692;23.342;2024-02-04T06:38:00;95672.06;;;9.64;58.42
52957;BME280;38819;42.692;23.342;2024-02-04T06:40:25;95677.19;;;9.66;58.46
52957;BME280;38819;42.692;23.342;2024-02-04T06:42:51;95675.34;;;9.56;58.90
52957;BME280;38819;42.692;23.342;2024-02-04T06:45:16;95671.00;;;9.66;59.00
52957;BME280;38819;42.692;23.342;2024-02-04T06:47:45;95676.88;;;9.78;58.72
52957;BME280;38819;42.692;23.342;2024-02-04T06:50:10;95677.69;;;9.73;58.73
52957;BME280;38819;42.692;23.342;2024-02-04T06:52:40;95676.59;;;9.79;58.88
52957;BME280;38819;42.692;23.342;2024-02-04T06:55:06;95672.06;;;9.70;58.86
52957;BME280;38819;42.692;23.342;2024-02-04T06:57:31;95683.91;;;9.74;58.79
52957;BME280;38819;42.692;23.342;2024-02-04T06:59:56;95672.53;;;9.82;58.87
52957;BME280;38819;42.692;23.342;2024-02-04T07:02:22;95666.84;;;9.89;58.75
52957;BME280;38819;42.692;23.342;2024-02-04T07:04:47;95667.41;;;9.86;58.80
52957;BME280;38819;42.692;23.342;2024-02-04T07:07:12;95680.91;;;9.86;59.09
52957;BME280;38819;42.692;23.342;2024-02-04T07:09:38;95672.00;;;9.80;59.17
52957;BME280;38819;42.692;23.342;2024-02-04T07:12:04;95666.03;;;9.88;58.81
52957;BME280;38819;42.692;23.342;2024-02-04T07:14:29;95675.78;;;9.84;58.98
52957;BME280;38819;42.692;23.342;2024-02-04T07:16:55;95677.38;;;9.85;59.09
52957;BME280;38819;42.692;23.342;2024-02-04T07:19:20;95674.38;;;9.92;59.03
52957;BME280;38819;42.692;23.342;2024-02-04T07:21:45;95686.03;;;9.77;59.40
52957;BME280;38819;42.692;23.342;2024-02-04T07:24:11;95673.09;;;9.84;59.24
52957;BME280;38819;42.692;23.342;2024-02-04T07:26:36;95675.50;;;9.86;59.48
52957;BME280;38819;42.692;23.342;2024-02-04T07:29:01;95687.38;;;9.85;59.44
52957;BME280;38819;42.692;23.342;2024-02-04T07:31:27;95656.91;;;9.84;59.40
52957;BME280;38819;42.692;23.342;2024-02-04T07:33:52;95669.25;;;9.95;59.04
52957;BME280;38819;42.692;23.342;2024-02-04T07:36:17;95676.25;;;9.96;59.04
52957;BME280;38819;42.692;23.342;2024-02-04T07:38:43;95668.16;;;9.96;59.02
52957;BME280;38819;42.692;23.342;2024-02-04T07:41:08;95678.94;;;10.01;59.05
52957;BME280;38819;42.692;23.342;2024-02-04T07:43:34;95673.25;;;10.03;58.75
52957;BME280;38819;42.692;23.342;2024-02-04T07:45:59;95677.84;;;10.08;58.67
52957;BME280;38819;42.692;23.342;2024-02-04T07:48:24;95665.69;;;10.05;58.46
52957;BME280;38819;42.692;23.342;2024-02-04T07:50:50;95689.94;;;10.10;58.62
52957;BME280;38819;42.692;23.342;2024-02-04T07:53:15;95687.53;;;10.09;58.27
52957;BME280;38819;42.692;23.342;2024-02-04T07:55:41;95679.72;;;10.07;58.31
52957;BME280;38819;42.692;23.342;2024-02-04T07:58:06;95675.44;;;10.01;58.35
52957;BME280;38819;42.692;23.342;2024-02-04T08:00:31;95681.09;;;10.05;58.14
52957;BME280;38819;42.692;23.342;2024-02-04T08:02:57;95695.94;;;10.02;58.28
52957;BME280;38819;42.692;23.342;2024-02-04T08:05:22;95693.50;;;10.06;57.81
52957;BME280;38819;42.692;23.342;2024-02-04T08:07:48;95684.59;;;10.05;58.07
52957;BME280;38819;42.692;23.342;2024-02-04T08:10:13;95683.22;;;10.13;57.74
52957;BME280;38819;42.692;23.342;2024-02-04T08:12:40;95680.78;;;10.11;57.45
52957;BME280;38819;42.692;23.342;2024-02-04T08:15:06;95681.81;;;10.15;57.63
52957;BME280;38819;42.692;23.342;2024-02-04T08:17:31;95695.03;;;10.22;57.27
52957;BME280;38819;42.692;23.342;2024-02-04T08:19:58;95696.38;;;10.25;57.31
52957;BME280;38819;42.692;23.342;2024-02-04T08:22:23;95689.63;;;10.22;57.28
52957;BME280;38819;42.692;23.342;2024-02-04T08:24:49;95691.50;;;10.27;57.07
52957;BME280;38819;42.692;23.342;2024-02-04T08:27:14;95683.91;;;10.34;57.17
52957;BME280;38819;42.692;23.342;2024-02-04T08:29:43;95670.09;;;10.41;56.81
52957;BME280;38819;42.692;23.342;2024-02-04T08:32:09;95694.41;;;10.46;56.62
52957;BME280;38819;42.692;23.342;2024-02-04T08:34:34;95700.09;;;10.39;57.17
52957;BME280;38819;42.692;23.342;2024-02-04T08:36:59;95681.50;;;10.37;57.03
52957;BME280;38819;42.692;23.342;2024-02-04T08:39:25;95692.53;;;10.41;56.89
52957;BME280;38819;42.692;23.342;2024-02-04T08:41:51;95676.56;;;10.45;57.22
52957;BME280;38819;42.692;23.342;2024-02-04T08:44:16;95689.19;;;10.54;56.78
52957;BME280;38819;42.692;23.342;2024-02-04T08:46:41;95684.09;;;10.53;57.17
52957;BME280;38819;42.692;23.342;2024-02-04T08:49:07;95687.25;;;10.60;57.03
52957;BME280;38819;42.692;23.342;2024-02-04T08:51:32;95684.72;;;10.74;56.67
52957;BME280;38819;42.692;23.342;2024-02-04T08:53:57;95682.88;;;10.69;56.47
52957;BME280;38819;42.692;23.342;2024-02-04T08:56:23;95693.38;;;10.76;56.50
52957;BME280;38819;42.692;23.342;2024-02-04T08:58:48;95680.44;;;10.73;56.85
52957;BME280;38819;42.692;23.342;2024-02-04T09:01:14;95680.38;;;10.78;56.50
52957;BME280;38819;42.692;23.342;2024-02-04T09:03:39;95672.28;;;10.78;56.81
52957;BME280;38819;42.692;23.342;2024-02-04T09:06:05;95684.25;;;10.67;57.10
52957;BME280;38819;42.692;23.342;2024-02-04T09:08:30;95682.34;;;10.67;57.30
52957;BME280;38819;42.692;23.342;2024-02-04T09:10:56;95693.22;;;10.57;57.54
52957;BME280;38819;42.692;23.342;2024-02-04T09:13:22;95685.63;;;10.59;57.62
52957;BME280;38819;42.692;23.342;2024-02-04T09:15:47;95688.94;;;10.56;57.78
52957;BME280;38819;42.692;23.342;2024-02-04T09:18:12;95681.88;;;10.60;57.42
52957;BME280;38819;42.692;23.342;2024-02-04T09:20:38;95692.94;;;10.59;57.83
52957;BME280;38819;42.692;23.342;2024-02-04T09:23:04;95684.88;;;10.53;57.79
52957;BME280;38819;42.692;23.342;2024-02-04T09:25:30;95676.22;;;10.56;57.69
52957;BME280;38819;42.692;23.342;2024-02-04T09:27:55;95708.56;;;10.67;57.48
52957;BME280;38819;42.692;23.342;2024-02-04T09:30:21;95711.56;;;10.60;57.59
52957;BME280;38819;42.692;23.342;2024-02-04T09:32:46;95709.66;;;10.61;57.80
52957;BME280;38819;42.692;23.342;2024-02-04T09:35:12;95726.47;;;10.57;58.00
52957;BME280;38819;42.692;23.342;2024-02-04T09:37:37;95700.53;;;10.56;58.14
52957;BME280;38819;42.692;23.342;2024-02-04T09:40:03;95725.09;;;10.60;58.32
52957;BME280;38819;42.692;23.342;2024-02-04T09:42:29;95695.38;;;10.60;58.29
52957;BME280;38819;42.692;23.342;2024-02-04T09:44:58;95702.41;;;10.61;58.34
52957;BME280;38819;42.692;23.342;2024-02-04T09:47:23;95692.03;;;10.73;58.01
52957;BME280;38819;42.692;23.342;2024-02-04T09:49:48;95700.63;;;10.81;58.02
52957;BME280;38819;42.692;23.342;2024-02-04T09:52:18;95726.19;;;10.93;57.93
52957;BME280;38819;42.692;23.342;2024-02-04T09:54:48;95691.31;;;10.97;57.73
52957;BME280;38819;42.692;23.342;2024-02-04T09:57:16;95690.75;;;11.00;57.72
52957;BME280;38819;42.692;23.342;2024-02-04T09:59:43;95682.59;;;11.05;57.70
52957;BME280;38819;42.692;23.342;2024-02-04T10:02:09;95677.19;;;11.05;57.41
52957;BME280;38819;42.692;23.342;2024-02-04T10:04:35;95700.94;;;11.08;57.77
52957;BME280;38819;42.692;23.342;2024-02-04T10:07:01;95703.88;;;11.12;57.55
52957;BME280;38819;42.692;23.342;2024-02-04T10:09:26;95698.44;;;11.17;57.60
52957;BME280;38819;42.692;23.342;2024-02-04T10:11:52;95685.97;;;11.21;57.69
52957;BME280;38819;42.692;23.342;2024-02-04T10:14:17;95692.97;;;11.22;57.94
52957;BME280;38819;42.692;23.342;2024-02-04T10:16:45;95680.81;;;11.25;58.05
52957;BME280;38819;42.692;23.342;2024-02-04T10:19:11;95690.50;;;11.31;57.79
52957;BME280;38819;42.692;23.342;2024-02-04T10:21:36;95698.59;;;11.31;57.82
52957;BME280;38819;42.692;23.342;2024-02-04T10:24:02;95705.84;;;11.36;57.88
52957;BME280;38819;42.692;23.342;2024-02-04T10:26:30;95706.94;;;11.35;57.92
52957;BME280;38819;42.692;23.342;2024-02-04T10:28:57;95691.78;;;11.34;57.94
52957;BME280;38819;42.692;23.342;2024-02-04T10:31:22;95705.56;;;11.37;58.00
52957;BME280;38819;42.692;23.342;2024-02-04T10:33:49;95690.72;;;11.35;58.11
52957;BME280;38819;42.692;23.342;2024-02-04T10:36:15;95694.22;;;11.35;58.01
52957;BME280;38819;42.692;23.342;2024-02-04T10:38:40;95709.69;;;11.29;58.08
52957;BME280;38819;42.692;23.342;2024-02-04T10:41:06;95694.94;;;11.17;58.64
52957;BME280;38819;42.692;23.342;2024-02-04T10:43:33;95681.69;;;11.15;58.84
52957;BME280;38819;42.692;23.342;2024-02-04T10:46:19;95688.00;;;11.05;59.04
52957;BME280;38819;42.692;23.342;2024-02-04T10:48:54;95697.63;;;11.17;59.01
52957;BME280;38819;42.692;23.342;2024-02-04T10:51:24;95740.66;;;11.13;58.93
52957;BME280;38819;42.692;23.342;2024-02-04T10:53:51;95698.72;;;11.16;58.95
52957;BME280;38819;42.692;23.342;2024-02-04T10:58:46;95692.41;;;11.25;58.77
52957;BME280;38819;42.692;23.342;2024-02-04T11:01:12;95694.28;;;11.30;58.55
52957;BME280;38819;42.692;23.342;2024-02-04T11:03:39;95688.00;;;11.35;58.28
52957;BME280;38819;42.692;23.342;2024-02-04T11:06:05;95686.09;;;11.35;58.05
52957;BME280;38819;42.692;23.342;2024-02-04T11:08:31;95685.81;;;11.37;58.16
52957;BME280;38819;42.692;23.342;2024-02-04T11:10:56;95687.19;;;11.34;58.19
52957;BME280;38819;42.692;23.342;2024-02-04T11:13:23;95686.09;;;11.35;58.21
52957;BME280;38819;42.692;23.342;2024-02-04T11:15:49;95684.75;;;11.38;57.87
52957;BME280;38819;42.692;23.342;2024-02-04T11:21:23;95665.50;;;11.39;57.74
52957;BME280;38819;42.692;23.342;2024-02-04T11:24:16;95661.72;;;11.40;58.10
52957;BME280;38819;42.692;23.342;2024-02-04T11:26:48;95672.00;;;11.38;58.08
52957;BME280;38819;42.692;23.342;2024-02-04T11:29:14;95683.84;;;11.42;58.03
52957;BME280;38819;42.692;23.342;2024-02-04T11:31:39;95670.00;;;11.49;57.81
52957;BME280;38819;42.692;23.342;2024-02-04T11:34:05;95656.00;;;11.42;57.94
52957;BME280;38819;42.692;23.342;2024-02-04T11:36:40;95665.94;;;11.52;57.64
52957;BME280;38819;42.692;23.342;2024-02-04T11:39:31;95659.38;;;11.58;57.56
52957;BME280;38819;42.692;23.342;2024-02-04T11:41:57;95650.09;;;11.64;57.31
52957;BME280;38819;42.692;23.342;2024-02-04T11:44:23;95644.44;;;11.60;57.33
52957;BME280;38819;42.692;23.342;2024-02-04T11:46:50;95651.44;;;11.66;57.05
52957;BME280;38819;42.692;23.342;2024-02-04T11:49:17;95642.78;;;11.64;57.20
52957;BME280;38819;42.692;23.342;2024-02-04T11:51:51;95627.34;;;11.65;57.09
52957;BME280;38819;42.692;23.342;2024-02-04T11:54:18;95628.66;;;11.67;57.08
52957;BME280;38819;42.692;23.342;2024-02-04T11:56:50;95621.38;;;11.68;56.63
52957;BME280;38819;42.692;23.342;2024-02-04T11:59:22;95611.41;;;11.63;56.46
52957;BME280;38819;42.692;23.342;2024-02-04T12:01:48;95592.56;;;11.77;56.15
52957;BME280;38819;42.692;23.342;2024-02-04T12:04:16;95603.31;;;11.82;55.93
52957;BME280;38819;42.692;23.342;2024-02-04T12:06:42;95603.22;;;11.93;55.97
52957;BME280;38819;42.692;23.342;2024-02-04T12:09:09;95598.34;;;11.95;55.46
52957;BME280;38819;42.692;23.342;2024-02-04T12:11:36;95600.38;;;12.03;54.87
52957;BME280;38819;42.692;23.342;2024-02-04T12:14:03;95610.94;;;12.04;54.61
52957;BME280;38819;42.692;23.342;2024-02-04T12:16:29;95607.59;;;12.08;54.42
52957;BME280;38819;42.692;23.342;2024-02-04T12:18:54;95602.94;;;12.13;54.49
52957;BME280;38819;42.692;23.342;2024-02-04T12:21:20;95606.44;;;12.14;54.59
52957;BME280;38819;42.692;23.342;2024-02-04T12:23:46;95610.78;;;12.15;54.56
52957;BME280;38819;42.692;23.342;2024-02-04T12:26:12;95597.03;;;12.11;54.86
52957;BME280;38819;42.692;23.342;2024-02-04T12:28:39;95619.41;;;12.17;54.64
52957;BME280;38819;42.692;23.342;2024-02-04T12:31:04;95595.03;;;12.17;54.64
52957;BME280;38819;42.692;23.342;2024-02-04T12:33:30;95594.25;;;12.16;54.69
52957;BME280;38819;42.692;23.342;2024-02-04T12:35:56;95595.03;;;12.17;54.24
52957;BME280;38819;42.692;23.342;2024-02-04T12:38:23;95590.19;;;12.14;54.25
52957;BME280;38819;42.692;23.342;2024-02-04T12:40:48;95586.13;;;12.16;54.13
52957;BME280;38819;42.692;23.342;2024-02-04T12:43:14;95587.25;;;12.29;53.88
52957;BME280;38819;42.692;23.342;2024-02-04T12:45:39;95584.72;;;12.19;54.16
52957;BME280;38819;42.692;23.342;2024-02-04T12:48:06;95577.00;;;12.26;54.15
52957;BME280;38819;42.692;23.342;2024-02-04T12:50:32;95576.44;;;12.29;54.12
52957;BME280;38819;42.692;23.342;2024-02-04T12:53:08;95590.78;;;12.30;54.01
52957;BME280;38819;42.692;23.342;2024-02-04T12:55:35;95585.88;;;12.32;54.03
52957;BME280;38819;42.692;23.342;2024-02-04T12:58:07;95579.06;;;12.34;53.84
52957;BME280;38819;42.692;23.342;2024-02-04T13:00:34;95583.53;;;12.25;54.03